KHH weather

Public forecast

Using degrees Celsius for public forecast. Weather courtesy of forecast.io.

Current aviation weather report (METAR) for Kaohsiung International Airport

Retrieved 2020/08/10 06:27 UTC (0 seconds ago):

RCKH 100627Z 16015G25KT 4500 -SHRA FEW012 BKN040 BKN080 29/25 Q1004 NOSIG RMK A2967

Aviation forecast (TAF) for Kaohsiung International Airport

Retrieved 2020/08/10 06:00 UTC (11 minutes ago):

TAF RCKH 100500Z 1006/1112 16012G22KT 9999 FEW015 BKN032 TEMPO 1006/1011 17022G32KT 4000 SHRA SCT008 FEW010CB BKN017 BKN035 BECMG 1011/1013 19015KT FEW010 BKN022 BKN040 TEMPO 1014/1021 21022G32KT 3200 SHRA SCT006 FEW008CB BKN012 BKN020 TEMPO 1021/1103 25010KT 5000 SHRA FEW008 BKN015 BKN035 TEMPO 1103/1109 09005KT FEW012 BKN032